createdAt,value
2022-11-15T00:01:26.578Z,16.50
2022-11-15T00:06:27.024Z,19.00
2022-11-15T00:11:20.814Z,15.67
2022-11-15T00:16:14.186Z,12.07
2022-11-15T00:21:12.803Z,15.80
2022-11-15T00:26:06.900Z,18.40
2022-11-15T00:31:04.142Z,12.87
2022-11-15T00:36:08.803Z,17.30
2022-11-15T00:41:10.276Z,13.30
2022-11-15T00:46:06.868Z,11.90
2022-11-15T00:51:04.425Z,14.27
2022-11-15T00:55:57.913Z,10.77
2022-11-15T01:00:57.199Z,10.33
2022-11-15T01:05:52.280Z,15.50
2022-11-15T01:10:45.708Z,14.20
2022-11-15T01:15:42.839Z,14.40
2022-11-15T01:20:47.153Z,14.23
2022-11-15T01:25:47.874Z,16.63
2022-11-15T01:30:45.754Z,14.20
2022-11-15T01:35:55.613Z,14.50
2022-11-15T01:40:52.181Z,16.00
2022-11-15T01:46:01.345Z,12.87
2022-11-15T01:50:58.277Z,18.87
2022-11-15T01:55:52.095Z,14.07
2022-11-15T02:00:47.752Z,17.37
2022-11-15T02:05:52.121Z,11.20
2022-11-15T02:10:52.765Z,12.77
2022-11-15T02:16:22.491Z,17.17
2022-11-15T02:21:31.749Z,17.47
2022-11-15T02:27:36.454Z,11.50
2022-11-15T02:32:44.633Z,13.93
2022-11-15T02:37:50.830Z,14.50
2022-11-15T02:43:12.523Z,10.57
2022-11-15T02:48:24.431Z,12.07
2022-11-15T02:53:26.676Z,10.57
2022-11-15T02:59:14.375Z,12.50
2022-11-15T03:04:27.513Z,12.27
2022-11-15T03:09:36.197Z,13.10
2022-11-15T03:14:40.765Z,12.10
2022-11-15T03:19:52.314Z,11.67
2022-11-15T03:24:49.062Z,11.80
2022-11-15T03:29:55.583Z,12.17
2022-11-15T03:35:04.643Z,11.00
2022-11-15T03:40:00.692Z,9.13
2022-11-15T03:45:04.598Z,11.30
2022-11-15T03:50:13.152Z,10.40
2022-11-15T03:55:12.724Z,10.17
2022-11-15T04:00:08.210Z,10.10
2022-11-15T04:05:05.004Z,10.80
2022-11-15T04:10:07.074Z,11.33
2022-11-15T04:15:11.866Z,11.37
2022-11-15T04:20:31.864Z,11.43
2022-11-15T04:25:32.028Z,11.27
2022-11-15T04:30:25.661Z,10.73
2022-11-15T04:35:20.386Z,12.37
2022-11-15T04:40:16.384Z,9.67
2022-11-15T04:45:11.891Z,9.83
2022-11-15T04:50:10.113Z,9.40
2022-11-15T04:55:08.526Z,10.57
2022-11-15T05:00:13.867Z,11.43
2022-11-15T05:05:08.329Z,10.13
2022-11-15T05:10:01.711Z,13.20
2022-11-15T05:14:56.440Z,9.60
2022-11-15T05:19:49.873Z,11.77
2022-11-15T05:24:45.483Z,12.97
2022-11-15T05:29:39.246Z,12.47
2022-11-15T05:34:34.676Z,10.40
2022-11-15T05:39:28.007Z,9.97
2022-11-15T05:44:27.410Z,10.83
2022-11-15T05:49:27.095Z,10.07
2022-11-15T05:54:25.594Z,13.87
2022-11-15T05:59:22.675Z,10.40
2022-11-15T06:04:18.932Z,18.30
2022-11-15T06:09:12.932Z,10.33
2022-11-15T06:14:08.137Z,41.80
2022-11-15T06:19:05.556Z,13.47
2022-11-15T06:23:59.105Z,13.37
2022-11-15T06:28:52.596Z,12.27
2022-11-15T06:33:47.345Z,10.37
2022-11-15T06:38:43.566Z,15.30
2022-11-15T06:43:38.780Z,11.63
2022-11-15T06:48:33.699Z,9.13
2022-11-15T06:53:33.840Z,11.33
2022-11-15T06:58:27.604Z,10.03
2022-11-15T07:03:21.051Z,13.23
2022-11-15T07:08:14.347Z,12.77
2022-11-15T07:13:09.089Z,9.10
2022-11-15T07:18:03.445Z,15.73
2022-11-15T07:23:03.231Z,11.80
2022-11-15T07:28:01.496Z,12.60
2022-11-15T07:32:59.398Z,12.97
2022-11-15T07:37:57.940Z,11.73
2022-11-15T07:42:58.113Z,10.73
2022-11-15T07:47:52.209Z,10.50
2022-11-15T07:52:47.463Z,11.93
2022-11-15T07:57:40.852Z,11.07
2022-11-15T08:02:34.594Z,10.97
2022-11-15T08:07:32.465Z,11.37
2022-11-15T08:12:27.396Z,12.17
2022-11-15T08:17:20.730Z,12.37
2022-11-15T08:22:14.115Z,11.03
2022-11-15T08:27:15.732Z,12.90
2022-11-15T08:32:11.168Z,14.67
2022-11-15T08:37:04.388Z,13.47
2022-11-15T08:41:57.881Z,13.33
2022-11-15T08:46:51.335Z,14.20
2022-11-15T08:51:46.090Z,13.37
2022-11-15T08:56:39.648Z,18.33
2022-11-15T09:01:33.668Z,21.40
2022-11-15T09:06:27.176Z,13.47
2022-11-15T09:11:25.504Z,16.43
2022-11-15T09:16:22.055Z,16.23
2022-11-15T09:21:18.256Z,16.73
2022-11-15T09:26:15.936Z,16.77
2022-11-15T09:31:14.189Z,16.10
2022-11-15T09:36:12.488Z,15.27
2022-11-15T09:41:43.214Z,15.90
2022-11-15T09:47:06.445Z,16.67
2022-11-15T09:52:22.148Z,17.60
2022-11-15T09:57:19.951Z,16.80
2022-11-15T10:02:46.876Z,17.90
2022-11-15T10:07:54.509Z,15.53
2022-11-15T10:12:53.828Z,16.20
2022-11-15T10:18:19.769Z,14.90
2022-11-15T10:23:22.536Z,15.47
2022-11-15T10:28:30.273Z,14.77
2022-11-15T10:33:34.968Z,14.87
2022-11-15T10:38:29.775Z,13.87
2022-11-15T10:43:27.240Z,12.30
2022-11-15T10:48:31.122Z,11.70
2022-11-15T10:53:35.189Z,12.77
2022-11-15T10:58:45.506Z,13.30
2022-11-15T11:03:43.098Z,13.50
2022-11-15T11:08:39.134Z,13.63
2022-11-15T11:13:38.104Z,15.13
2022-11-15T11:18:40.478Z,14.53
2022-11-15T11:23:54.345Z,14.30
2022-11-15T11:29:18.291Z,14.80
2022-11-15T11:34:21.963Z,15.93
2022-11-15T11:39:38.862Z,15.77
2022-11-15T11:44:45.155Z,16.17
2022-11-15T11:49:48.409Z,16.57
2022-11-15T11:55:03.173Z,16.03
2022-11-15T12:00:06.208Z,16.13
2022-11-15T12:05:14.023Z,14.93
2022-11-15T12:10:24.799Z,14.40
2022-11-15T12:15:24.307Z,14.87
2022-11-15T12:20:21.710Z,13.60
2022-11-15T12:25:23.596Z,29.50
2022-11-15T12:30:20.865Z,17.27
2022-11-15T12:35:29.440Z,15.63
2022-11-15T12:40:37.323Z,12.50
2022-11-15T12:45:34.323Z,13.83
2022-11-15T12:50:57.207Z,17.30
2022-11-15T12:56:25.967Z,17.17
2022-11-15T13:02:04.641Z,16.33
2022-11-15T13:07:01.899Z,13.43
2022-11-15T13:11:58.036Z,12.93
2022-11-15T13:16:59.054Z,13.23
2022-11-15T13:22:10.769Z,11.90
2022-11-15T13:27:19.108Z,12.87
2022-11-15T13:32:15.362Z,12.27
2022-11-15T13:37:29.885Z,13.27
2022-11-15T13:42:24.659Z,13.60
2022-11-15T13:47:21.819Z,12.93
2022-11-15T13:52:18.007Z,13.50
2022-11-15T13:57:18.722Z,14.13
2022-11-15T14:02:19.026Z,16.73
2022-11-15T14:07:20.722Z,16.93
2022-11-15T14:12:32.814Z,19.67
2022-11-15T14:17:45.638Z,18.40
2022-11-15T14:22:54.435Z,18.10
2022-11-15T14:28:18.053Z,16.50
2022-11-15T14:33:27.702Z,17.07
2022-11-15T14:38:20.970Z,16.90
2022-11-15T14:43:16.146Z,24.00
2022-11-15T14:48:09.737Z,20.27
2022-11-15T14:53:03.853Z,22.77
2022-11-15T14:57:57.644Z,37.67
2022-11-15T15:02:56.168Z,32.47
2022-11-15T15:07:50.049Z,28.87
2022-11-15T15:12:45.345Z,33.87
2022-11-15T15:17:38.690Z,25.00
2022-11-15T15:22:33.621Z,29.40
2022-11-15T15:27:26.942Z,23.77
2022-11-15T15:32:20.204Z,22.00
2022-11-15T15:37:26.076Z,19.97
2022-11-15T15:42:21.692Z,18.70
2022-11-15T15:47:17.609Z,16.60
2022-11-15T15:52:10.893Z,16.93
2022-11-15T15:57:04.314Z,17.57
2022-11-15T16:01:58.958Z,22.50
2022-11-15T16:06:53.878Z,64.40
2022-11-15T16:11:48.675Z,32.67
2022-11-15T16:16:41.956Z,38.97
2022-11-15T16:21:39.391Z,38.37
2022-11-15T16:26:39.146Z,28.77
2022-11-15T16:31:32.557Z,28.97
2022-11-15T16:36:31.274Z,23.73
2022-11-15T16:41:26.092Z,20.37
2022-11-15T16:46:22.094Z,18.60
2022-11-15T16:51:16.282Z,18.37
2022-11-15T16:56:23.958Z,21.27
2022-11-15T17:01:24.616Z,24.27
2022-11-15T17:06:18.925Z,30.60
2022-11-15T17:11:17.953Z,20.47
2022-11-15T17:16:14.452Z,18.93
2022-11-15T17:21:14.381Z,17.80
2022-11-15T17:26:28.307Z,18.40
2022-11-15T17:31:22.097Z,18.67
2022-11-15T17:36:16.932Z,21.47
2022-11-15T17:41:15.535Z,22.20
2022-11-15T17:46:13.025Z,24.03
2022-11-15T17:51:12.140Z,24.27
2022-11-15T17:56:10.422Z,27.10
2022-11-15T18:01:08.862Z,29.80
2022-11-15T18:06:02.277Z,26.00
2022-11-15T18:11:07.917Z,21.63
2022-11-15T18:16:03.827Z,20.30
2022-11-15T18:21:03.718Z,20.10
2022-11-15T18:25:57.043Z,19.43
2022-11-15T18:30:51.736Z,20.10
2022-11-15T18:35:45.133Z,19.67
2022-11-15T18:40:38.392Z,20.37
2022-11-15T18:45:32.106Z,18.80
2022-11-15T18:50:26.796Z,18.50
2022-11-15T18:55:20.372Z,26.33
2022-11-15T19:00:15.758Z,36.40
2022-11-15T19:05:09.602Z,24.17
2022-11-15T19:10:04.713Z,26.03
2022-11-15T19:14:58.052Z,25.50
2022-11-15T19:19:51.759Z,21.50
2022-11-15T19:24:45.207Z,17.53
2022-11-15T19:29:40.572Z,15.97
2022-11-15T19:34:33.827Z,16.27
2022-11-15T19:39:27.160Z,18.63
2022-11-15T19:44:20.920Z,18.90
2022-11-15T19:49:15.599Z,19.60
2022-11-15T19:54:10.321Z,18.27
2022-11-15T19:59:04.924Z,17.33
2022-11-15T20:04:03.092Z,17.07
2022-11-15T20:09:01.231Z,19.10
2022-11-15T20:13:59.437Z,29.10
2022-11-15T20:19:04.789Z,25.97
2022-11-15T20:24:40.966Z,20.63
2022-11-15T20:29:43.908Z,17.90
2022-11-15T20:34:43.557Z,17.30
2022-11-15T20:39:37.120Z,18.13
2022-11-15T20:44:36.800Z,15.87
2022-11-15T20:49:31.521Z,15.80
2022-11-15T20:54:27.044Z,16.40
2022-11-15T20:59:20.482Z,15.77
2022-11-15T21:04:15.193Z,14.20
2022-11-15T21:09:26.176Z,25.07
2022-11-15T21:14:19.745Z,15.73
2022-11-15T21:19:14.853Z,14.77
2022-11-15T21:24:10.719Z,16.30
2022-11-15T21:29:04.881Z,16.50
2022-11-15T21:33:58.187Z,16.40
2022-11-15T21:38:53.689Z,15.27
2022-11-15T21:43:46.923Z,14.53
2022-11-15T21:48:40.220Z,14.90
2022-11-15T21:53:34.450Z,14.50
2022-11-15T21:58:31.085Z,14.87
2022-11-15T22:03:25.131Z,16.13
2022-11-15T22:08:18.404Z,17.10
2022-11-15T22:13:11.698Z,17.20
2022-11-15T22:18:06.845Z,17.57
2022-11-15T22:23:01.629Z,15.53
2022-11-15T22:27:55.860Z,14.40
2022-11-15T22:32:49.986Z,15.60
2022-11-15T22:37:46.633Z,14.83
2022-11-15T22:42:40.122Z,15.50
2022-11-15T22:47:33.616Z,14.97
2022-11-15T22:52:27.152Z,15.10
2022-11-15T22:57:22.012Z,14.83
2022-11-15T23:02:18.449Z,15.40
2022-11-15T23:07:12.030Z,14.20
2022-11-15T23:12:23.362Z,14.83
2022-11-15T23:17:18.344Z,12.97
2022-11-15T23:22:31.648Z,13.43
2022-11-15T23:27:25.420Z,13.93
2022-11-15T23:32:37.517Z,13.00
2022-11-15T23:37:31.060Z,13.23
2022-11-15T23:42:24.638Z,12.30
2022-11-15T23:47:20.077Z,13.40
2022-11-15T23:52:15.382Z,13.57
2022-11-15T23:57:11.997Z,14.13
